首页
METAR-TAF:

METAR-TAF

机场 :

梅薩, 亞利桑那州, 美国

纬度: 33-28N, 经度: 111-44W, 海拔: 424米

当前天气观测

该预报发布于40分钟前的04:54 UTC
静风
温度 14°C
湿度 94%
气压 1020 hPa
能見度: 11.3公里
多云层高于8500英尺
阴天层高于10000英尺
小雨

METAR: KFFZ 080454Z AUTO 00000KT 7SM -RA BKN085 OVC100 14/13 A3012 RMK AO2 SLP187 P0005 T01440133

时间: 22:34 (05:34 UTC)


TAF: 丢失

超过4000个机场的气象观测和天气预报(METAR&TAF报告)。

可查询的气象台以黄色和红色小点在地图上表示。

将鼠标移到小点上方,可查看气象台名称。

然后点击查看天气观测和预报。

如需切换地图:点击带黑十字的绿色按钮放大地图;点击带横线的绿色按钮缩小地图;或者点击绿色箭头查看邻近地区的地图。


METAR-TAF: